createdAt,value
2023-04-18T00:00:12.411Z,12.91
2023-04-18T00:03:27.575Z,12.93
2023-04-18T00:06:42.382Z,12.89
2023-04-18T00:09:44.790Z,12.91
2023-04-18T00:12:59.398Z,12.88
2023-04-18T00:16:07.922Z,12.88
2023-04-18T00:19:22.377Z,12.83
2023-04-18T00:22:37.413Z,12.83
2023-04-18T00:25:52.367Z,12.82
2023-04-18T00:29:03.015Z,12.79
2023-04-18T00:32:11.413Z,12.77
2023-04-18T00:35:26.362Z,12.73
2023-04-18T00:38:34.411Z,12.73
2023-04-18T00:41:49.370Z,12.68
2023-04-18T00:44:51.436Z,12.67
2023-04-18T00:48:06.408Z,12.60
2023-04-18T00:51:09.869Z,12.61
2023-04-18T00:54:28.369Z,12.59
2023-04-18T00:57:50.370Z,12.59
2023-04-18T01:00:52.250Z,12.58
2023-04-18T01:04:07.439Z,12.58
2023-04-18T01:07:22.381Z,12.54
2023-04-18T01:10:31.383Z,12.52
2023-04-18T01:13:46.382Z,12.55
2023-04-18T01:16:54.634Z,12.53
2023-04-18T01:20:10.373Z,12.50
2023-04-18T01:23:12.699Z,12.53
2023-04-18T01:26:27.378Z,12.54
2023-04-18T01:29:36.291Z,12.55
2023-04-18T01:32:53.485Z,12.55
2023-04-18T01:35:55.394Z,12.58
2023-04-18T01:39:10.426Z,12.53
2023-04-18T01:42:12.712Z,12.54
2023-04-18T01:45:27.392Z,12.52
2023-04-18T01:48:29.329Z,12.52
2023-04-18T01:51:45.396Z,12.53
2023-04-18T01:55:00.443Z,12.53
2023-04-18T01:58:02.305Z,12.54
2023-04-18T02:01:17.421Z,12.55
2023-04-18T02:04:19.344Z,12.51
2023-04-18T02:07:34.413Z,12.50
2023-04-18T02:10:43.116Z,12.43
2023-04-18T02:13:59.371Z,12.45
2023-04-18T02:17:14.695Z,12.47
2023-04-18T02:20:23.381Z,12.47
2023-04-18T02:23:32.182Z,12.48
2023-04-18T02:26:47.383Z,12.46
2023-04-18T02:29:49.293Z,12.54
2023-04-18T02:33:04.427Z,12.52
2023-04-18T02:36:06.713Z,12.53
2023-04-18T02:39:21.378Z,12.44
2023-04-18T02:42:23.318Z,12.46
2023-04-18T02:45:38.405Z,12.43
2023-04-18T02:48:40.569Z,12.36
2023-04-18T02:51:55.381Z,12.32
2023-04-18T02:54:57.330Z,12.29
2023-04-18T02:58:12.428Z,12.25
2023-04-18T03:01:15.421Z,12.25
2023-04-18T03:04:30.384Z,12.13
2023-04-18T03:07:39.009Z,12.29
2023-04-18T03:10:54.225Z,12.30
2023-04-18T03:14:04.408Z,12.28
2023-04-18T03:17:19.702Z,12.29
2023-04-18T03:20:28.407Z,12.26
2023-04-18T03:23:43.412Z,12.30
2023-04-18T03:26:52.416Z,12.29
2023-04-18T03:30:08.383Z,12.30
2023-04-18T03:33:23.419Z,12.30
2023-04-18T03:36:38.376Z,12.30
2023-04-18T03:39:46.397Z,12.27
2023-04-18T03:42:55.066Z,12.29
2023-04-18T03:46:09.411Z,12.30
2023-04-18T03:49:18.187Z,12.30
2023-04-18T03:52:28.527Z,12.25
2023-04-18T03:55:45.383Z,12.19
2023-04-18T03:58:54.135Z,12.21
2023-04-18T04:02:02.551Z,12.21
2023-04-18T04:05:11.108Z,12.18
2023-04-18T04:08:28.120Z,12.15
2023-04-18T04:11:43.378Z,12.17
2023-04-18T04:15:05.403Z,12.18
2023-04-18T04:18:20.382Z,12.17
2023-04-18T04:21:29.281Z,12.14
2023-04-18T04:24:44.388Z,12.14
2023-04-18T04:27:46.230Z,12.15
2023-04-18T04:31:01.374Z,12.09
2023-04-18T04:34:16.588Z,12.07
2023-04-18T04:37:31.376Z,12.02
2023-04-18T04:40:40.102Z,12.07
2023-04-18T04:43:49.369Z,12.07
2023-04-18T04:47:04.385Z,12.05
2023-04-18T04:50:14.826Z,12.05
2023-04-18T04:53:23.407Z,12.04
2023-04-18T04:56:32.536Z,12.02
2023-04-18T04:59:41.418Z,12.01
2023-04-18T05:02:52.758Z,12.02
2023-04-18T05:06:07.396Z,11.96
2023-04-18T05:09:09.360Z,11.94
2023-04-18T05:12:24.384Z,11.92
2023-04-18T05:15:46.345Z,11.93
2023-04-18T05:19:01.417Z,11.91
2023-04-18T05:22:16.476Z,11.97
2023-04-18T05:25:31.422Z,12.01
2023-04-18T05:28:39.786Z,12.05
2023-04-18T05:31:55.499Z,12.08
2023-04-18T05:34:57.433Z,12.19
2023-04-18T05:38:12.388Z,12.28
2023-04-18T05:41:20.431Z,12.36
2023-04-18T05:44:29.783Z,12.39
2023-04-18T05:47:44.447Z,12.42
2023-04-18T05:50:52.415Z,12.48
2023-04-18T05:54:01.085Z,12.51
2023-04-18T05:57:15.408Z,12.49
2023-04-18T06:00:17.973Z,12.50
2023-04-18T06:03:32.596Z,12.66
2023-04-18T06:06:35.697Z,12.73
2023-04-18T06:09:50.423Z,12.76
2023-04-18T06:13:05.402Z,12.83
2023-04-18T06:16:27.606Z,12.88
2023-04-18T06:19:43.405Z,12.94
2023-04-18T06:22:45.674Z,12.95
2023-04-18T06:26:00.377Z,13.01
2023-04-18T06:29:15.437Z,13.11
2023-04-18T06:32:24.423Z,13.06
2023-04-18T06:35:33.013Z,13.20
2023-04-18T06:38:47.433Z,13.40
2023-04-18T06:41:49.466Z,13.42
2023-04-18T06:45:04.395Z,13.52
2023-04-18T06:48:13.421Z,13.64
2023-04-18T06:51:22.042Z,13.72
2023-04-18T06:58:23.427Z,13.72
2023-04-18T07:01:32.484Z,13.74
2023-04-18T07:04:47.498Z,13.77
2023-04-18T07:07:56.001Z,13.64
2023-04-18T07:11:11.453Z,13.87
2023-04-18T07:14:20.433Z,13.91
2023-04-18T07:17:42.482Z,13.95
2023-04-18T07:20:57.548Z,14.07
2023-04-18T07:24:06.523Z,14.24
2023-04-18T07:27:21.428Z,14.21
2023-04-18T07:30:30.431Z,14.20
2023-04-18T07:33:39.300Z,14.20
2023-04-18T07:36:48.445Z,14.31
2023-04-18T07:40:03.425Z,14.37
2023-04-18T07:43:05.544Z,14.55
2023-04-18T07:46:20.467Z,14.63
2023-04-18T07:49:29.679Z,14.76
2023-04-18T07:52:39.538Z,14.89
2023-04-18T07:55:55.735Z,14.92
2023-04-18T07:59:10.056Z,14.92
2023-04-18T08:02:24.520Z,15.04
2023-04-18T08:05:34.530Z,15.03
2023-04-18T08:08:50.423Z,15.22
2023-04-18T08:11:52.945Z,15.48
2023-04-18T08:15:07.443Z,15.57
2023-04-18T08:18:15.700Z,15.59
2023-04-18T08:21:31.460Z,15.62
2023-04-18T08:24:41.705Z,15.69
2023-04-18T08:27:55.809Z,15.76
2023-04-18T08:31:10.445Z,15.89
2023-04-18T08:34:12.331Z,15.84
2023-04-18T08:37:27.529Z,15.87
2023-04-18T08:40:45.208Z,15.79
2023-04-18T08:43:48.918Z,15.78
2023-04-18T08:47:03.504Z,16.01
2023-04-18T08:50:06.181Z,16.22
2023-04-18T08:53:24.712Z,16.42
2023-04-18T08:56:35.198Z,16.77
2023-04-18T09:11:33.429Z,18.68
2023-04-18T09:14:48.543Z,19.23
2023-04-18T09:18:01.639Z,19.18
2023-04-18T09:21:24.413Z,19.49
2023-04-18T09:24:33.026Z,19.21
2023-04-18T09:27:41.463Z,18.98
2023-04-18T09:31:00.490Z,18.97
2023-04-18T09:34:02.542Z,18.98
2023-04-18T09:37:19.431Z,19.10
2023-04-18T09:40:34.430Z,18.74
2023-04-18T09:43:45.336Z,18.56
2023-04-18T09:47:00.462Z,18.51
2023-04-18T09:50:16.460Z,18.76
2023-04-18T09:53:32.443Z,18.57
2023-04-18T09:56:45.962Z,18.38
2023-04-18T09:59:59.457Z,18.11
2023-04-18T10:03:17.488Z,18.49
2023-04-18T10:06:26.442Z,18.79
2023-04-18T10:09:35.284Z,18.42
2023-04-18T10:12:45.469Z,18.51
2023-04-18T10:16:01.469Z,18.85
2023-04-18T10:19:29.049Z,18.79
2023-04-18T10:22:43.427Z,19.29
2023-04-18T10:25:52.128Z,19.20
2023-04-18T10:29:07.413Z,19.83
2023-04-18T10:32:24.484Z,19.85
2023-04-18T10:35:42.460Z,19.50
2023-04-18T10:39:15.428Z,18.93
2023-04-18T10:42:53.445Z,18.89
2023-04-18T10:46:30.514Z,19.20
2023-04-18T10:50:00.464Z,19.12
2023-04-18T10:53:09.446Z,19.60
2023-04-18T10:56:24.460Z,19.24
2023-04-18T10:59:26.720Z,19.06
2023-04-18T11:02:41.620Z,19.49
2023-04-18T11:05:57.364Z,19.51
2023-04-18T11:09:11.345Z,19.85
2023-04-18T11:12:26.474Z,19.92
2023-04-18T11:15:35.463Z,19.78
2023-04-18T11:18:57.465Z,19.95
2023-04-18T11:22:01.049Z,19.95
2023-04-18T11:25:15.451Z,20.07
2023-04-18T11:28:28.973Z,19.80
2023-04-18T11:31:37.121Z,19.71
2023-04-18T11:34:45.473Z,19.32
2023-04-18T11:37:54.664Z,19.58
2023-04-18T11:41:03.448Z,19.53
2023-04-18T11:44:18.472Z,19.39
2023-04-18T11:47:39.574Z,19.42
2023-04-18T11:50:54.449Z,19.77
2023-04-18T11:54:03.627Z,19.75
2023-04-18T11:57:34.455Z,19.89
2023-04-18T12:00:45.461Z,19.46
2023-04-18T12:04:14.625Z,19.26
2023-04-18T12:07:42.687Z,19.81
2023-04-18T12:11:00.129Z,20.16
2023-04-18T12:14:22.728Z,20.46
2023-04-18T12:17:46.554Z,20.56
2023-04-18T12:20:56.483Z,21.17
2023-04-18T12:24:14.619Z,20.64
2023-04-18T12:27:29.472Z,20.87
2023-04-18T12:30:44.462Z,20.51
2023-04-18T12:33:59.469Z,20.41
2023-04-18T12:37:14.474Z,20.29
2023-04-18T12:40:23.469Z,20.00
2023-04-18T12:43:38.499Z,20.50
2023-04-18T12:46:47.078Z,20.73
2023-04-18T12:50:01.479Z,20.74
2023-04-18T12:53:10.268Z,20.04
2023-04-18T12:56:25.451Z,19.51
2023-04-18T12:59:34.992Z,19.75
2023-04-18T13:02:44.805Z,20.13
2023-04-18T13:06:00.488Z,20.43
2023-04-18T13:09:09.167Z,20.40
2023-04-18T13:12:24.512Z,20.18
2023-04-18T13:15:39.814Z,20.39
2023-04-18T13:18:48.818Z,20.16
2023-04-18T13:22:06.745Z,20.26
2023-04-18T13:25:18.487Z,20.16
2023-04-18T13:28:35.713Z,20.14
2023-04-18T13:39:58.470Z,19.76
2023-04-18T13:43:07.811Z,19.74
2023-04-18T13:46:16.523Z,19.95
2023-04-18T13:49:31.502Z,19.56
2023-04-18T13:52:33.455Z,19.87
2023-04-18T13:55:49.474Z,19.84
2023-04-18T13:58:58.094Z,19.86
2023-04-18T14:02:14.649Z,19.87
2023-04-18T14:05:23.262Z,19.83
2023-04-18T14:08:31.459Z,19.46
2023-04-18T14:11:46.539Z,19.68
2023-04-18T14:14:55.480Z,19.62
2023-04-18T14:18:17.551Z,19.85
2023-04-18T14:21:32.492Z,19.87
2023-04-18T14:24:36.086Z,19.82
2023-04-18T14:27:55.950Z,19.84
2023-04-18T14:31:05.539Z,19.69
2023-04-18T14:34:14.188Z,20.02
2023-04-18T14:37:29.502Z,19.73
2023-04-18T14:40:32.932Z,19.54
2023-04-18T14:43:47.510Z,19.46
2023-04-18T14:46:49.472Z,19.28
2023-04-18T14:50:04.516Z,19.17
2023-04-18T14:53:07.060Z,19.25
2023-04-18T14:56:21.482Z,19.29
2023-04-18T14:59:36.490Z,19.13
2023-04-18T15:02:45.408Z,19.06
2023-04-18T15:05:53.494Z,19.16
2023-04-18T15:09:08.475Z,19.22
2023-04-18T15:12:17.610Z,19.00
2023-04-18T15:15:32.498Z,19.02
2023-04-18T15:18:47.748Z,18.91
2023-04-18T15:21:56.496Z,18.78
2023-04-18T15:25:05.547Z,18.87
2023-04-18T15:28:14.497Z,18.88
2023-04-18T15:31:23.121Z,18.84
2023-04-18T15:34:31.500Z,18.77
2023-04-18T15:37:40.102Z,18.79
2023-04-18T15:40:54.485Z,18.63
2023-04-18T15:44:12.323Z,18.58
2023-04-18T15:47:14.449Z,18.41
2023-04-18T15:50:32.745Z,18.50
2023-04-18T15:53:48.492Z,18.32
2023-04-18T15:56:57.057Z,18.37
2023-04-18T16:00:05.510Z,18.34
2023-04-18T16:03:14.302Z,18.41
2023-04-18T16:06:29.492Z,18.36
2023-04-18T16:09:32.122Z,18.30
2023-04-18T16:12:47.482Z,18.11
2023-04-18T16:15:55.513Z,17.97
2023-04-18T16:19:17.985Z,17.82
2023-04-18T16:22:26.199Z,17.84
2023-04-18T16:25:41.488Z,17.74
2023-04-18T16:28:57.539Z,17.71
2023-04-18T16:31:59.495Z,17.62
2023-04-18T16:35:15.511Z,17.58
2023-04-18T16:38:17.656Z,17.51
2023-04-18T16:41:32.537Z,17.45
2023-04-18T16:44:34.554Z,17.44
2023-04-18T16:47:49.916Z,17.41
2023-04-18T16:50:58.525Z,17.40
2023-04-18T16:54:07.055Z,17.38
2023-04-18T16:57:21.691Z,17.37
2023-04-18T17:00:30.089Z,17.31
2023-04-18T17:03:44.871Z,17.25
2023-04-18T17:06:59.661Z,17.21
2023-04-18T17:10:10.020Z,17.14
2023-04-18T17:13:27.526Z,17.04
2023-04-18T17:16:47.769Z,17.03
2023-04-18T17:20:10.926Z,16.98
2023-04-18T17:23:25.879Z,16.82
2023-04-18T17:26:27.932Z,16.71
2023-04-18T17:29:42.514Z,16.64
2023-04-18T17:32:44.646Z,16.65
2023-04-18T17:35:59.705Z,16.58
2023-04-18T17:39:14.807Z,16.50
2023-04-18T17:42:26.550Z,16.44
2023-04-18T17:45:35.651Z,16.40
2023-04-18T17:48:45.002Z,16.34
2023-04-18T17:52:05.295Z,16.24
2023-04-18T17:55:14.772Z,16.15
2023-04-18T17:58:23.673Z,16.10
2023-04-18T18:01:39.052Z,16.05
2023-04-18T18:04:42.122Z,15.99
2023-04-18T18:07:57.520Z,15.87
2023-04-18T18:11:07.910Z,15.73
2023-04-18T18:14:23.898Z,15.68
2023-04-18T18:17:25.993Z,15.51
2023-04-18T18:20:50.949Z,15.53
2023-04-18T18:23:59.858Z,15.46
2023-04-18T18:27:08.715Z,15.36
2023-04-18T18:30:24.999Z,15.31
2023-04-18T18:33:27.517Z,15.25
2023-04-18T18:36:43.148Z,15.15
2023-04-18T18:39:53.441Z,15.13
2023-04-18T18:43:02.589Z,15.21
2023-04-18T18:46:20.370Z,15.24
2023-04-18T18:49:23.186Z,15.29
2023-04-18T18:52:38.989Z,15.44
2023-04-18T18:55:47.510Z,15.60
2023-04-18T18:59:05.133Z,15.67
2023-04-18T19:02:15.087Z,15.69
2023-04-18T19:05:24.064Z,15.71
2023-04-18T19:08:39.082Z,15.77
2023-04-18T19:11:47.357Z,15.69
2023-04-18T19:14:57.089Z,15.70
2023-04-18T19:18:13.075Z,15.57
2023-04-18T19:21:23.084Z,15.59
2023-04-18T19:24:37.988Z,15.55
2023-04-18T19:27:46.646Z,15.46
2023-04-18T19:31:02.006Z,15.41
2023-04-18T19:34:10.979Z,15.38
2023-04-18T19:37:19.990Z,15.30
2023-04-18T19:40:37.528Z,15.28
2023-04-18T19:43:46.609Z,15.26
2023-04-18T19:46:57.201Z,15.24
2023-04-18T19:50:14.130Z,15.16
2023-04-18T19:53:31.050Z,15.21
2023-04-18T19:56:47.085Z,15.21
2023-04-18T20:00:03.995Z,15.16
2023-04-18T20:03:06.373Z,15.07
2023-04-18T20:06:23.940Z,15.10
2023-04-18T20:09:32.941Z,15.10
2023-04-18T20:12:43.564Z,15.09
2023-04-18T20:15:58.975Z,15.09
2023-04-18T20:19:21.050Z,15.06
2023-04-18T20:22:29.875Z,15.05
2023-04-18T20:25:40.969Z,15.03
2023-04-18T20:28:56.963Z,15.00
2023-04-18T20:32:12.939Z,14.98
2023-04-18T20:35:21.662Z,14.97
2023-04-18T20:38:36.827Z,14.87
2023-04-18T20:41:57.041Z,14.78
2023-04-18T20:45:06.625Z,14.63
2023-04-18T20:48:16.653Z,14.71
2023-04-18T20:51:26.420Z,14.70
2023-04-18T20:54:34.870Z,14.73
2023-04-18T20:57:49.518Z,14.70
2023-04-18T21:00:58.549Z,14.70
2023-04-18T21:04:13.960Z,14.69
2023-04-18T21:07:23.079Z,14.65
2023-04-18T21:10:31.537Z,14.60
2023-04-18T21:13:46.541Z,14.58
2023-04-18T21:16:54.551Z,14.57
2023-04-18T21:20:09.974Z,14.54
2023-04-18T21:23:24.552Z,14.59
2023-04-18T21:26:33.113Z,14.63
2023-04-18T21:29:41.522Z,14.66
2023-04-18T21:32:56.537Z,14.60
2023-04-18T21:36:04.517Z,14.62
2023-04-18T21:39:13.381Z,14.58
2023-04-18T21:42:21.551Z,14.57
2023-04-18T21:45:36.562Z,14.56
2023-04-18T21:48:50.583Z,14.57
2023-04-18T21:52:05.526Z,14.57
2023-04-18T21:55:14.094Z,14.56
2023-04-18T21:58:28.527Z,14.52
2023-04-18T22:01:30.444Z,14.54
2023-04-18T22:04:45.542Z,14.54
2023-04-18T22:07:57.355Z,14.52
2023-04-18T22:11:13.618Z,14.47
2023-04-18T22:14:22.559Z,14.48
2023-04-18T22:17:49.542Z,14.47
2023-04-18T22:21:04.553Z,14.44
2023-04-18T22:24:13.275Z,14.38
2023-04-18T22:27:21.543Z,14.38
2023-04-18T22:30:31.307Z,14.36
2023-04-18T22:33:46.596Z,14.33
2023-04-18T22:36:55.212Z,14.32
2023-04-18T22:40:03.572Z,14.25
2023-04-18T22:43:20.581Z,14.24
2023-04-18T22:46:29.177Z,14.24
2023-04-18T22:49:43.541Z,14.25
2023-04-18T22:52:59.560Z,14.24
2023-04-18T22:56:01.425Z,14.22
2023-04-18T22:59:16.564Z,14.17
2023-04-18T23:02:19.025Z,14.15
2023-04-18T23:05:34.601Z,14.13
2023-04-18T23:08:49.566Z,14.08
2023-04-18T23:11:58.560Z,14.10
2023-04-18T23:15:14.558Z,14.08
2023-04-18T23:18:29.564Z,14.07
2023-04-18T23:21:37.844Z,14.05
2023-04-18T23:24:53.575Z,14.05
2023-04-18T23:28:01.635Z,13.95
2023-04-18T23:31:16.591Z,14.05
2023-04-18T23:34:25.550Z,14.03
2023-04-18T23:37:40.572Z,14.06
2023-04-18T23:40:42.583Z,14.02
2023-04-18T23:43:57.571Z,14.07
2023-04-18T23:47:05.645Z,14.07
2023-04-18T23:50:21.056Z,14.05
2023-04-18T23:53:29.547Z,14.08
2023-04-18T23:56:38.128Z,14.06
2023-04-18T23:59:52.568Z,14.08
